To NAV CANADA Home Page Login to a new session Search on AWWS site Feedback and Comments Disclaimer Vers la page française équivalente Tips FAQ What's new on the site To the Forecasts and Observations / NOTAM section To "File a Flight Plan" website Publications and other links Update of the User's profile FIC Telephone Numbers My Weather Data Folder Route Weather Data Regional Weather Data Local Weather Data To the Forecasts and Observations / NOTAM section
Request Generated 10/17/2017 at 01:57:07 UTC . Weather information available at that time is displayed.

METAR/TAF

THUNDER BAY/ON    (show WxCam)

METAR CYQT 170100Z 24007KT 15SM BKN110 11/04 A2985 RMK AC5 SLP118=
METAR CYQT 170000Z 21005KT 15SM BKN110 11/03 A2986 RMK AC7 SLP122=
METAR CYQT 162300Z 21007KT 20SM BKN100 11/04 A2989 RMK AC6 SLP132=

TAF CYQT 170138Z 1702/1714 23008KT P6SM BKN120
BECMG 1702/1704 26007KT
RMK NXT FCST BY 170800Z=
Your time UTC time
Weather data provided by Environment Canada and NAV CANADA